createdAt,value
2022-08-22T00:00:34.179Z,8.55
2022-08-22T00:02:42.499Z,6.90
2022-08-22T00:05:57.511Z,10.88
2022-08-22T00:08:23.832Z,12.98
2022-08-22T00:10:59.399Z,15.05
2022-08-22T00:13:31.960Z,9.73
2022-08-22T00:16:04.109Z,10.35
2022-08-22T00:18:49.698Z,11.93
2022-08-22T00:21:27.342Z,7.10
2022-08-22T00:23:59.298Z,13.80
2022-08-22T00:26:30.203Z,7.93
2022-08-22T00:29:00.020Z,8.85
2022-08-22T00:31:33.032Z,13.73
2022-08-22T00:34:00.554Z,9.43
2022-08-22T00:36:43.431Z,12.63
2022-08-22T00:39:16.990Z,14.48
2022-08-22T00:41:43.338Z,10.35
2022-08-22T00:44:09.704Z,7.30
2022-08-22T00:46:54.501Z,10.25
2022-08-22T00:49:33.063Z,11.77
2022-08-22T00:52:18.626Z,9.07
2022-08-22T00:55:11.496Z,10.40
2022-08-22T00:57:51.003Z,8.10
2022-08-22T01:00:20.772Z,10.82
2022-08-22T01:02:52.666Z,11.05
2022-08-22T01:05:22.320Z,7.40
2022-08-22T01:08:27.396Z,14.30
2022-08-22T01:11:08.792Z,13.90
2022-08-22T01:13:35.174Z,11.55
2022-08-22T01:16:30.646Z,11.27
2022-08-22T01:19:15.956Z,15.27
2022-08-22T01:21:53.993Z,7.35
2022-08-22T01:25:02.218Z,14.65
2022-08-22T01:27:28.986Z,12.63
2022-08-22T01:30:14.728Z,9.15
2022-08-22T01:32:41.222Z,11.43
2022-08-22T01:35:26.592Z,12.57
2022-08-22T01:37:56.187Z,5.05
2022-08-22T01:40:32.068Z,8.52
2022-08-22T01:43:21.107Z,12.18
2022-08-22T01:46:07.545Z,14.27
2022-08-22T01:48:44.226Z,14.32
2022-08-22T01:51:17.533Z,10.02
2022-08-22T01:53:43.976Z,7.70
2022-08-22T01:56:13.682Z,7.97
2022-08-22T01:58:58.860Z,10.35
2022-08-22T02:01:36.481Z,9.82
2022-08-22T02:04:09.828Z,12.45
2022-08-22T02:06:41.359Z,6.07
2022-08-22T02:09:07.807Z,11.55
2022-08-22T02:11:37.399Z,10.27
2022-08-22T02:14:13.534Z,12.73
2022-08-22T02:16:45.713Z,10.63
2022-08-22T02:19:14.029Z,9.00
2022-08-22T02:22:00.857Z,9.45
2022-08-22T02:24:33.443Z,8.85
2022-08-22T02:27:18.765Z,10.15
2022-08-22T02:30:00.828Z,8.00
2022-08-22T02:32:33.456Z,7.78
2022-08-22T02:35:03.589Z,12.77
2022-08-22T02:37:33.828Z,11.00
2022-08-22T02:40:17.133Z,15.60
2022-08-22T02:42:46.657Z,16.75
2022-08-22T02:45:13.552Z,4.63
2022-08-22T02:47:49.128Z,9.88
2022-08-22T02:50:24.750Z,9.20
2022-08-22T02:53:10.009Z,12.60
2022-08-22T02:55:58.592Z,10.45
2022-08-22T02:58:31.174Z,7.55
2022-08-22T03:00:57.628Z,5.63
2022-08-22T03:03:28.930Z,9.60
2022-08-22T03:06:28.194Z,12.07
2022-08-22T03:09:21.101Z,15.80
2022-08-22T03:11:50.690Z,6.43
2022-08-22T03:14:28.746Z,14.30
2022-08-22T03:16:55.266Z,7.80
2022-08-22T03:19:21.745Z,7.60
2022-08-22T03:21:54.599Z,10.55
2022-08-22T03:24:39.658Z,8.02
2022-08-22T03:27:10.545Z,11.30
2022-08-22T03:29:38.904Z,10.73
2022-08-22T03:32:05.436Z,9.52
2022-08-22T03:34:32.182Z,10.35
2022-08-22T03:37:04.934Z,9.05
2022-08-22T03:39:37.118Z,7.40
2022-08-22T03:42:23.755Z,8.60
2022-08-22T03:45:08.442Z,11.25
2022-08-22T03:47:58.736Z,8.90
2022-08-22T03:50:34.368Z,9.65
2022-08-22T03:53:18.542Z,6.72
2022-08-22T03:55:45.619Z,11.23
2022-08-22T03:58:31.189Z,8.88
2022-08-22T04:01:04.049Z,5.50
2022-08-22T04:03:49.277Z,6.47
2022-08-22T04:06:31.368Z,6.57
2022-08-22T04:11:42.843Z,6.40
2022-08-22T04:14:18.365Z,8.13
2022-08-22T04:17:10.915Z,10.15
2022-08-22T04:19:38.694Z,5.78
2022-08-22T04:22:08.474Z,4.97
2022-08-22T04:24:53.552Z,7.43
2022-08-22T04:27:29.586Z,4.60
2022-08-22T04:29:59.800Z,8.48
2022-08-22T04:32:26.168Z,7.50
2022-08-22T04:34:59.704Z,8.40
2022-08-22T04:37:39.376Z,8.18
2022-08-22T04:40:09.123Z,6.97
2022-08-22T04:42:37.825Z,7.20
2022-08-22T04:45:17.056Z,7.45
2022-08-22T04:47:47.142Z,12.10
2022-08-22T04:50:23.781Z,7.13
2022-08-22T04:53:08.958Z,9.55
2022-08-22T04:55:40.925Z,6.25
2022-08-22T04:58:26.078Z,12.57
2022-08-22T05:00:55.568Z,7.47
2022-08-22T05:03:23.389Z,6.85
2022-08-22T05:05:50.985Z,6.65
2022-08-22T05:08:21.539Z,9.82
2022-08-22T05:10:49.670Z,9.20
2022-08-22T05:13:29.071Z,9.98
2022-08-22T05:15:58.277Z,7.32
2022-08-22T05:18:29.717Z,10.05
2022-08-22T05:20:59.168Z,10.35
2022-08-22T05:23:31.212Z,7.18
2022-08-22T05:25:59.936Z,5.32
2022-08-22T05:28:45.336Z,7.38
2022-08-22T05:31:14.171Z,13.30
2022-08-22T05:33:48.190Z,7.72
2022-08-22T05:36:25.868Z,8.07
2022-08-22T05:38:59.472Z,11.95
2022-08-22T05:41:27.435Z,8.85
2022-08-22T05:43:55.029Z,8.88
2022-08-22T05:46:37.614Z,8.63
2022-08-22T05:49:05.827Z,9.02
2022-08-22T05:51:49.821Z,5.60
2022-08-22T05:54:33.601Z,14.57
2022-08-22T05:57:21.273Z,9.73
2022-08-22T05:59:50.149Z,8.07
2022-08-22T06:02:21.912Z,9.57
2022-08-22T06:04:54.719Z,8.68
2022-08-22T06:07:27.528Z,9.45
2022-08-22T06:10:23.545Z,7.25
2022-08-22T06:13:09.034Z,7.90
2022-08-22T06:15:44.145Z,8.77
2022-08-22T06:18:15.280Z,8.43
2022-08-22T06:20:45.270Z,11.05
2022-08-22T06:23:15.471Z,10.10
2022-08-22T06:25:44.067Z,12.68
2022-08-22T06:28:13.062Z,11.85
2022-08-22T06:30:39.756Z,10.57
2022-08-22T06:33:12.531Z,9.07
2022-08-22T06:36:03.130Z,9.43
2022-08-22T06:38:33.386Z,8.35
2022-08-22T06:41:03.033Z,10.55
2022-08-22T06:43:34.137Z,9.23
2022-08-22T06:46:00.851Z,6.65
2022-08-22T06:48:29.141Z,6.90
2022-08-22T06:50:57.130Z,6.20
2022-08-22T06:53:25.902Z,8.90
2022-08-22T06:55:54.593Z,7.57
2022-08-22T06:58:23.563Z,5.78
2022-08-22T07:00:56.286Z,7.38
2022-08-22T07:03:37.135Z,5.75
2022-08-22T07:06:04.271Z,7.55
2022-08-22T07:08:37.172Z,11.10
2022-08-22T07:11:05.594Z,7.50
2022-08-22T07:13:32.666Z,8.40
2022-08-22T07:16:02.666Z,9.90
2022-08-22T07:18:29.802Z,7.90
2022-08-22T07:20:59.227Z,6.70
2022-08-22T07:23:31.629Z,7.47
2022-08-22T07:26:18.324Z,6.47
2022-08-22T07:28:51.540Z,3.55
2022-08-22T07:31:31.769Z,6.30
2022-08-22T07:34:21.928Z,4.55
2022-08-22T07:36:54.911Z,8.45
2022-08-22T07:39:27.521Z,10.02
2022-08-22T07:41:58.080Z,6.65
2022-08-22T07:44:26.896Z,4.88
2022-08-22T07:46:53.988Z,2.47
2022-08-22T07:49:30.704Z,6.28
2022-08-22T07:52:00.362Z,5.80
2022-08-22T07:54:33.042Z,5.55
2022-08-22T07:57:01.392Z,3.28
2022-08-22T07:59:29.037Z,3.50
2022-08-22T08:01:57.036Z,4.70
2022-08-22T08:04:29.806Z,4.47
2022-08-22T08:06:58.154Z,5.32
2022-08-22T08:09:26.359Z,6.22
2022-08-22T08:11:53.535Z,3.92
2022-08-22T08:14:21.381Z,4.63
2022-08-22T08:16:54.271Z,7.00
2022-08-22T08:19:21.166Z,4.57
2022-08-22T08:21:55.372Z,5.03
2022-08-22T08:24:29.019Z,6.70
2022-08-22T08:29:59.512Z,6.40
2022-08-22T08:32:28.013Z,3.33
2022-08-22T08:34:54.517Z,8.20
2022-08-22T08:37:29.550Z,3.85
2022-08-22T08:39:58.006Z,5.18
2022-08-22T08:43:02.144Z,2.67
2022-08-22T08:45:37.504Z,3.08
2022-08-22T08:48:24.214Z,4.20
2022-08-22T08:50:57.123Z,3.70
2022-08-22T08:53:51.111Z,5.72
2022-08-22T08:56:20.894Z,3.03
2022-08-22T08:59:03.314Z,6.35
2022-08-22T09:01:39.604Z,4.13
2022-08-22T09:04:06.733Z,3.67
2022-08-22T09:06:56.637Z,5.32
2022-08-22T09:09:46.818Z,5.38
2022-08-22T09:12:25.748Z,4.05
2022-08-22T09:14:55.766Z,4.10
2022-08-22T09:17:22.121Z,2.97
2022-08-22T09:19:52.133Z,1.95
2022-08-22T09:22:50.085Z,8.27
2022-08-22T09:25:27.201Z,4.82
2022-08-22T09:28:13.673Z,6.28
2022-08-22T09:30:43.062Z,4.30
2022-08-22T09:33:15.212Z,2.92
2022-08-22T09:35:56.722Z,2.55
2022-08-22T09:38:31.073Z,2.25
2022-08-22T09:41:00.683Z,4.53
2022-08-22T09:43:33.734Z,4.95
2022-08-22T09:46:01.882Z,2.50
2022-08-22T09:48:28.617Z,5.25
2022-08-22T09:51:26.668Z,2.42
2022-08-22T09:53:54.245Z,4.82
2022-08-22T09:56:20.990Z,4.63
2022-08-22T09:59:04.757Z,2.25
2022-08-22T10:01:40.117Z,5.60
2022-08-22T10:04:14.764Z,5.25
2022-08-22T10:06:54.650Z,4.82
2022-08-22T10:09:31.377Z,5.22
2022-08-22T10:12:05.022Z,5.53
2022-08-22T10:14:51.238Z,4.38
2022-08-22T10:17:21.615Z,4.68
2022-08-22T10:22:15.782Z,4.78
2022-08-22T10:24:49.587Z,3.15
2022-08-22T10:27:20.534Z,3.50
2022-08-22T10:29:49.109Z,3.05
2022-08-22T10:32:26.990Z,4.20
2022-08-22T10:34:56.203Z,3.63
2022-08-22T10:37:32.604Z,5.97
2022-08-22T10:40:02.563Z,3.55
2022-08-22T10:42:35.512Z,5.07
2022-08-22T10:45:14.857Z,5.72
2022-08-22T10:47:53.443Z,5.10
2022-08-22T10:50:36.431Z,1.75
2022-08-22T10:53:31.126Z,6.28
2022-08-22T10:55:59.268Z,2.17
2022-08-22T10:58:27.137Z,4.80
2022-08-22T11:01:15.094Z,6.90
2022-08-22T11:04:12.186Z,3.22
2022-08-22T11:06:45.410Z,2.47
2022-08-22T11:09:15.185Z,9.20
2022-08-22T11:11:47.747Z,5.70
2022-08-22T11:14:17.396Z,4.70
2022-08-22T11:17:23.535Z,4.60
2022-08-22T11:20:09.070Z,5.75
2022-08-22T11:22:41.928Z,7.47
2022-08-22T11:25:35.654Z,4.22
2022-08-22T11:28:05.397Z,2.20
2022-08-22T11:30:44.429Z,7.63
2022-08-22T11:33:11.706Z,4.63
2022-08-22T11:35:43.442Z,5.85
2022-08-22T11:38:16.631Z,6.47
2022-08-22T11:40:46.690Z,4.35
2022-08-22T11:43:13.185Z,3.70
2022-08-22T11:45:47.215Z,4.50
2022-08-22T11:48:13.781Z,4.65
2022-08-22T11:50:54.633Z,3.33
2022-08-22T11:55:47.417Z,4.78
2022-08-22T11:58:16.882Z,6.72
2022-08-22T12:00:51.368Z,4.50
2022-08-22T12:03:26.133Z,5.93
2022-08-22T12:05:58.401Z,4.00
2022-08-22T12:08:49.446Z,5.28
2022-08-22T12:11:15.865Z,3.28
2022-08-22T12:13:45.961Z,3.10
2022-08-22T12:16:27.590Z,2.88
2022-08-22T12:18:55.373Z,3.08
2022-08-22T12:21:22.066Z,5.00
2022-08-22T12:23:56.026Z,5.13
2022-08-22T12:26:25.426Z,3.80
2022-08-22T12:29:04.637Z,3.67
2022-08-22T12:31:43.265Z,3.42
2022-08-22T12:34:29.936Z,2.90
2022-08-22T12:36:56.600Z,3.20
2022-08-22T12:39:41.751Z,3.60
2022-08-22T12:42:28.796Z,3.88
2022-08-22T12:44:55.234Z,2.45
2022-08-22T12:47:21.669Z,4.28
2022-08-22T12:49:52.332Z,3.20
2022-08-22T12:52:26.397Z,5.35
2022-08-22T12:55:08.048Z,3.90
2022-08-22T12:57:37.621Z,3.33
2022-08-22T13:00:22.958Z,3.50
2022-08-22T13:02:54.118Z,2.40
2022-08-22T13:05:25.690Z,3.45
2022-08-22T13:07:55.291Z,3.65
2022-08-22T13:10:35.359Z,2.90
2022-08-22T13:13:03.805Z,4.95
2022-08-22T13:15:42.668Z,4.47
2022-08-22T13:18:30.492Z,3.88
2022-08-22T13:20:58.828Z,2.22
2022-08-22T13:23:41.988Z,2.85
2022-08-22T13:26:16.351Z,2.28
2022-08-22T13:29:24.646Z,3.53
2022-08-22T13:31:52.700Z,3.50
2022-08-22T13:34:24.841Z,3.85
2022-08-22T13:39:24.587Z,2.53
2022-08-22T13:41:56.747Z,4.20
2022-08-22T13:44:31.539Z,1.90
2022-08-22T13:47:14.225Z,3.40
2022-08-22T13:49:44.899Z,2.88
2022-08-22T13:54:59.968Z,3.05
2022-08-22T13:57:41.828Z,3.22
2022-08-22T14:00:29.062Z,3.58
2022-08-22T14:03:13.411Z,3.78
2022-08-22T14:05:39.885Z,2.95
2022-08-22T14:08:26.330Z,3.40
2022-08-22T14:10:55.302Z,5.47
2022-08-22T14:13:30.274Z,1.73
2022-08-22T14:16:01.187Z,6.30
2022-08-22T14:18:31.708Z,2.38
2022-08-22T14:21:17.503Z,3.55
2022-08-22T14:23:44.783Z,4.07
2022-08-22T14:26:23.017Z,4.40
2022-08-22T14:29:00.078Z,4.82
2022-08-22T14:31:27.297Z,1.55
2022-08-22T14:33:58.856Z,3.58
2022-08-22T14:36:38.794Z,3.65
2022-08-22T14:39:05.223Z,4.15
2022-08-22T14:41:57.013Z,2.85
2022-08-22T14:44:49.301Z,3.88
2022-08-22T14:47:48.187Z,3.88
2022-08-22T14:50:34.350Z,1.92
2022-08-22T14:53:06.569Z,4.30
2022-08-22T14:55:35.324Z,2.63
2022-08-22T14:58:05.914Z,3.03
2022-08-22T15:00:34.522Z,6.57
2022-08-22T15:03:19.411Z,6.18
2022-08-22T15:05:48.655Z,3.60
2022-08-22T15:08:24.416Z,4.85
2022-08-22T15:11:07.656Z,3.88
2022-08-22T15:13:36.220Z,4.32
2022-08-22T15:16:12.783Z,4.30
2022-08-22T15:18:39.871Z,3.58
2022-08-22T15:21:26.152Z,2.65
2022-08-22T15:23:54.484Z,4.05
2022-08-22T15:26:31.216Z,4.22
2022-08-22T15:29:15.751Z,6.80
2022-08-22T15:31:46.904Z,3.88
2022-08-22T15:34:20.726Z,3.85
2022-08-22T15:37:00.415Z,4.32
2022-08-22T15:39:38.014Z,3.13
2022-08-22T15:42:04.748Z,3.47
2022-08-22T15:44:35.639Z,2.53
2022-08-22T15:47:05.297Z,4.45
2022-08-22T15:49:47.367Z,4.82
2022-08-22T15:52:21.756Z,3.55
2022-08-22T15:54:57.035Z,1.90
2022-08-22T15:57:40.405Z,2.17
2022-08-22T16:00:15.986Z,2.38
2022-08-22T16:02:55.882Z,2.17
2022-08-22T16:05:25.303Z,3.90
2022-08-22T16:07:57.810Z,2.35
2022-08-22T16:10:24.176Z,3.40
2022-08-22T16:13:09.599Z,3.75
2022-08-22T16:15:47.079Z,5.22
2022-08-22T16:18:32.429Z,3.55
2022-08-22T16:21:03.290Z,2.85
2022-08-22T16:23:49.841Z,2.13
2022-08-22T16:26:18.564Z,1.92
2022-08-22T16:28:58.188Z,2.95
2022-08-22T16:31:39.226Z,3.30
2022-08-22T16:34:18.111Z,4.15
2022-08-22T16:37:10.485Z,3.20
2022-08-22T16:39:43.279Z,3.25
2022-08-22T16:42:12.784Z,3.38
2022-08-22T16:44:50.002Z,3.25
2022-08-22T16:47:19.131Z,4.75
2022-08-22T16:49:51.663Z,3.63
2022-08-22T16:52:21.266Z,7.07
2022-08-22T16:54:49.177Z,5.78
2022-08-22T16:57:18.669Z,4.28
2022-08-22T17:00:00.183Z,5.00
2022-08-22T17:02:33.617Z,4.07
2022-08-22T17:05:04.310Z,4.57
2022-08-22T17:07:49.128Z,4.78
2022-08-22T17:10:28.879Z,2.88
2022-08-22T17:13:10.661Z,3.65
2022-08-22T17:15:48.508Z,4.07
2022-08-22T17:18:23.818Z,4.65
2022-08-22T17:21:13.152Z,3.30
2022-08-22T17:24:06.146Z,5.32
2022-08-22T17:26:47.905Z,3.42
2022-08-22T17:29:38.276Z,4.40
2022-08-22T17:32:14.788Z,1.83
2022-08-22T17:34:56.170Z,3.50
2022-08-22T17:37:49.309Z,4.18
2022-08-22T17:40:34.579Z,2.78
2022-08-22T17:43:20.396Z,3.08
2022-08-22T17:46:00.522Z,2.65
2022-08-22T17:48:47.962Z,4.70
2022-08-22T17:51:28.733Z,3.33
2022-08-22T17:56:25.001Z,5.72
2022-08-22T17:59:01.653Z,3.13
2022-08-22T18:01:40.124Z,4.00
2022-08-22T18:04:08.565Z,4.43
2022-08-22T18:06:37.197Z,3.88
2022-08-22T18:09:16.552Z,4.13
2022-08-22T18:11:50.233Z,4.53
2022-08-22T18:14:35.410Z,4.47
2022-08-22T18:17:12.685Z,4.30
2022-08-22T18:19:51.437Z,5.68
2022-08-22T18:22:20.872Z,5.13
2022-08-22T18:25:06.036Z,3.38
2022-08-22T18:27:36.126Z,4.22
2022-08-22T18:30:05.852Z,3.92
2022-08-22T18:32:39.993Z,3.15
2022-08-22T18:35:13.681Z,6.72
2022-08-22T18:37:46.123Z,4.90
2022-08-22T18:40:36.640Z,2.38
2022-08-22T18:43:15.032Z,4.10
2022-08-22T18:45:44.753Z,3.03
2022-08-22T18:48:29.906Z,3.25
2022-08-22T18:51:15.133Z,3.08
2022-08-22T18:53:47.059Z,3.60
2022-08-22T18:56:25.863Z,6.00
2022-08-22T18:59:05.503Z,4.68
2022-08-22T19:01:47.395Z,3.10
2022-08-22T19:04:33.057Z,4.65
2022-08-22T19:07:09.181Z,4.65
2022-08-22T19:10:08.199Z,4.65
2022-08-22T19:12:49.533Z,4.30
2022-08-22T19:15:19.038Z,6.50
2022-08-22T19:18:00.112Z,3.95
2022-08-22T19:23:29.884Z,2.55
2022-08-22T19:26:15.044Z,4.70
2022-08-22T19:28:41.490Z,5.15
2022-08-22T19:31:23.847Z,3.83
2022-08-22T19:34:10.526Z,7.07
2022-08-22T19:36:36.879Z,5.50
2022-08-22T19:39:09.053Z,4.55
2022-08-22T19:42:15.497Z,3.30
2022-08-22T19:44:43.296Z,3.92
2022-08-22T19:47:18.902Z,2.38
2022-08-22T19:49:50.300Z,4.10
2022-08-22T19:52:16.666Z,3.72
2022-08-22T19:55:04.191Z,3.85
2022-08-22T19:57:36.709Z,4.82
2022-08-22T20:00:10.020Z,3.90
2022-08-22T20:02:50.011Z,3.88
2022-08-22T20:05:20.293Z,5.25
2022-08-22T20:07:58.445Z,3.78
2022-08-22T20:10:43.620Z,4.70
2022-08-22T20:13:18.547Z,2.67
2022-08-22T20:16:03.838Z,5.05
2022-08-22T20:18:54.419Z,3.95
2022-08-22T20:21:47.475Z,6.18
2022-08-22T20:24:22.461Z,5.85
2022-08-22T20:27:10.406Z,3.50
2022-08-22T20:29:39.786Z,3.25
2022-08-22T20:32:06.396Z,5.47
2022-08-22T20:34:34.337Z,3.00
2022-08-22T20:37:27.174Z,4.40
2022-08-22T20:39:58.731Z,4.20
2022-08-22T20:42:26.679Z,6.78
2022-08-22T20:44:54.006Z,2.88
2022-08-22T20:47:24.752Z,4.60
2022-08-22T20:50:01.900Z,4.60
2022-08-22T20:52:28.308Z,3.00
2022-08-22T20:55:14.757Z,3.95
2022-08-22T20:57:46.090Z,3.25
2022-08-22T21:00:14.407Z,3.20
2022-08-22T21:02:45.509Z,3.78
2022-08-22T21:05:12.229Z,3.58
2022-08-22T21:07:39.903Z,2.75
2022-08-22T21:10:27.088Z,3.55
2022-08-22T21:13:02.527Z,3.67
2022-08-22T21:15:29.694Z,3.60
2022-08-22T21:17:56.131Z,7.50
2022-08-22T21:20:23.101Z,4.95
2022-08-22T21:22:49.754Z,2.78
2022-08-22T21:25:18.328Z,5.43
2022-08-22T21:27:46.709Z,4.50
2022-08-22T21:30:20.456Z,4.63
2022-08-22T21:32:51.174Z,2.60
2022-08-22T21:35:30.261Z,3.03
2022-08-22T21:37:57.713Z,4.75
2022-08-22T21:40:30.348Z,6.68
2022-08-22T21:43:10.773Z,2.80
2022-08-22T21:45:37.132Z,4.80
2022-08-22T21:48:23.630Z,3.45
2022-08-22T21:50:50.063Z,4.32
2022-08-22T21:53:27.602Z,3.58
2022-08-22T21:56:13.948Z,3.70
2022-08-22T21:58:41.150Z,3.22
2022-08-22T22:01:27.739Z,3.30
2022-08-22T22:03:54.517Z,6.40
2022-08-22T22:06:20.924Z,4.20
2022-08-22T22:08:48.998Z,3.15
2022-08-22T22:11:15.643Z,4.32
2022-08-22T22:13:42.392Z,6.90
2022-08-22T22:16:09.262Z,7.13
2022-08-22T22:18:37.368Z,5.35
2022-08-22T22:21:03.885Z,7.25
2022-08-22T22:23:30.344Z,2.08
2022-08-22T22:25:57.725Z,4.18
2022-08-22T22:28:28.254Z,4.10
2022-08-22T22:30:54.654Z,2.78
2022-08-22T22:33:22.831Z,2.95
2022-08-22T22:35:49.542Z,7.32
2022-08-22T22:38:19.482Z,5.57
2022-08-22T22:40:49.745Z,3.55
2022-08-22T22:43:16.123Z,3.47
2022-08-22T22:45:42.595Z,2.28
2022-08-22T22:48:09.048Z,2.15
2022-08-22T22:50:40.538Z,3.17
2022-08-22T22:53:07.779Z,5.72
2022-08-22T22:55:36.133Z,3.72
2022-08-22T22:58:08.236Z,5.85
2022-08-22T23:00:37.046Z,3.10
2022-08-22T23:03:04.484Z,4.75
2022-08-22T23:05:31.151Z,3.58
2022-08-22T23:07:58.058Z,3.88
2022-08-22T23:10:25.316Z,6.55
2022-08-22T23:12:51.707Z,4.25
2022-08-22T23:15:18.161Z,4.13
2022-08-22T23:17:44.614Z,3.03
2022-08-22T23:20:11.094Z,4.07
2022-08-22T23:22:37.614Z,5.90
2022-08-22T23:25:04.890Z,2.65
2022-08-22T23:27:31.540Z,2.70
2022-08-22T23:29:57.963Z,4.57
2022-08-22T23:32:24.374Z,2.90
2022-08-22T23:34:50.988Z,3.00
2022-08-22T23:37:18.834Z,3.33
2022-08-22T23:39:45.779Z,4.38
2022-08-22T23:42:12.569Z,2.83
2022-08-22T23:44:39.806Z,7.40
2022-08-22T23:47:10.373Z,3.33
2022-08-22T23:49:37.521Z,4.60
2022-08-22T23:52:04.602Z,3.22
2022-08-22T23:54:31.020Z,4.75
2022-08-22T23:56:59.701Z,4.88
2022-08-22T23:59:33.894Z,3.63
